sensor_id;sensor_type;location;lat;lon;timestamp;P1;durP1;ratioP1;P2;durP2;ratioP2
29432;SDS011;16405;53.964;13.448;2022-10-31T00:02:49;0.00;;;0.00;;
29432;SDS011;16405;53.964;13.448;2022-10-31T00:05:17;0.00;;;0.00;;
29432;SDS011;16405;53.964;13.448;2022-10-31T00:11:10;0.00;;;0.00;;
29432;SDS011;16405;53.964;13.448;2022-10-31T00:19:59;0.00;;;0.00;;
29432;SDS011;16405;53.964;13.448;2022-10-31T00:26:18;0.00;;;0.00;;
29432;SDS011;16405;53.964;13.448;2022-10-31T00:32:28;0.00;;;0.00;;
29432;SDS011;16405;53.964;13.448;2022-10-31T01:11:58;0.10;;;0.10;;
29432;SDS011;16405;53.964;13.448;2022-10-31T01:14:27;0.00;;;0.00;;
29432;SDS011;16405;53.964;13.448;2022-10-31T01:16:55;0.00;;;0.00;;
29432;SDS011;16405;53.964;13.448;2022-10-31T01:19:21;0.00;;;0.00;;
29432;SDS011;16405;53.964;13.448;2022-10-31T01:21:46;0.00;;;0.00;;
29432;SDS011;16405;53.964;13.448;2022-10-31T01:24:12;0.00;;;0.00;;
29432;SDS011;16405;53.964;13.448;2022-10-31T01:26:38;0.00;;;0.00;;
29432;SDS011;16405;53.964;13.448;2022-10-31T01:29:04;0.00;;;0.00;;
29432;SDS011;16405;53.964;13.448;2022-10-31T01:31:37;0.00;;;0.00;;
29432;SDS011;16405;53.964;13.448;2022-10-31T01:34:04;0.00;;;0.00;;
29432;SDS011;16405;53.964;13.448;2022-10-31T01:36:35;0.00;;;0.00;;
29432;SDS011;16405;53.964;13.448;2022-10-31T01:39:07;0.00;;;0.00;;
29432;SDS011;16405;53.964;13.448;2022-10-31T01:41:47;0.00;;;0.00;;
29432;SDS011;16405;53.964;13.448;2022-10-31T01:46:42;0.00;;;0.00;;
29432;SDS011;16405;53.964;13.448;2022-10-31T01:51:58;0.00;;;0.00;;
29432;SDS011;16405;53.964;13.448;2022-10-31T01:54:35;0.00;;;0.00;;
29432;SDS011;16405;53.964;13.448;2022-10-31T01:57:06;0.00;;;0.00;;
29432;SDS011;16405;53.964;13.448;2022-10-31T01:59:40;0.00;;;0.00;;
29432;SDS011;16405;53.964;13.448;2022-10-31T02:04:42;0.00;;;0.00;;
29432;SDS011;16405;53.964;13.448;2022-10-31T02:07:30;0.00;;;0.00;;
29432;SDS011;16405;53.964;13.448;2022-10-31T02:10:36;0.00;;;0.00;;
29432;SDS011;16405;53.964;13.448;2022-10-31T02:13:04;0.00;;;0.00;;
29432;SDS011;16405;53.964;13.448;2022-10-31T02:15:40;0.00;;;0.00;;
29432;SDS011;16405;53.964;13.448;2022-10-31T02:18:07;0.00;;;0.00;;
29432;SDS011;16405;53.964;13.448;2022-10-31T02:32:02;0.00;;;0.00;;
29432;SDS011;16405;53.964;13.448;2022-10-31T02:34:58;0.00;;;0.00;;
29432;SDS011;16405;53.964;13.448;2022-10-31T02:40:25;0.00;;;0.00;;
29432;SDS011;16405;53.964;13.448;2022-10-31T02:43:03;0.00;;;0.00;;
29432;SDS011;16405;53.964;13.448;2022-10-31T02:46:21;0.00;;;0.00;;
29432;SDS011;16405;53.964;13.448;2022-10-31T02:49:00;0.00;;;0.00;;
29432;SDS011;16405;53.964;13.448;2022-10-31T02:51:43;0.00;;;0.00;;
29432;SDS011;16405;53.964;13.448;2022-10-31T02:54:22;0.00;;;0.00;;
29432;SDS011;16405;53.964;13.448;2022-10-31T02:57:01;0.00;;;0.00;;
29432;SDS011;16405;53.964;13.448;2022-10-31T02:59:36;0.00;;;0.00;;
29432;SDS011;16405;53.964;13.448;2022-10-31T03:08:30;0.00;;;0.00;;
29432;SDS011;16405;53.964;13.448;2022-10-31T03:11:23;0.00;;;0.00;;
29432;SDS011;16405;53.964;13.448;2022-10-31T03:14:01;0.00;;;0.00;;
29432;SDS011;16405;53.964;13.448;2022-10-31T03:16:52;0.00;;;0.00;;
29432;SDS011;16405;53.964;13.448;2022-10-31T03:19:35;0.00;;;0.00;;
29432;SDS011;16405;53.964;13.448;2022-10-31T03:22:21;0.00;;;0.00;;
29432;SDS011;16405;53.964;13.448;2022-10-31T03:24:58;0.00;;;0.00;;
29432;SDS011;16405;53.964;13.448;2022-10-31T03:27:28;0.00;;;0.00;;
29432;SDS011;16405;53.964;13.448;2022-10-31T03:30:06;0.00;;;0.00;;
29432;SDS011;16405;53.964;13.448;2022-10-31T03:35:12;0.00;;;0.00;;
29432;SDS011;16405;53.964;13.448;2022-10-31T03:37:44;0.00;;;0.00;;
29432;SDS011;16405;53.964;13.448;2022-10-31T03:40:11;0.00;;;0.00;;
29432;SDS011;16405;53.964;13.448;2022-10-31T03:42:41;0.00;;;0.00;;
29432;SDS011;16405;53.964;13.448;2022-10-31T03:45:18;0.00;;;0.00;;
29432;SDS011;16405;53.964;13.448;2022-10-31T03:47:58;0.00;;;0.00;;
29432;SDS011;16405;53.964;13.448;2022-10-31T03:50:25;0.00;;;0.00;;
29432;SDS011;16405;53.964;13.448;2022-10-31T03:53:07;0.00;;;0.00;;
29432;SDS011;16405;53.964;13.448;2022-10-31T03:55:48;0.00;;;0.00;;
29432;SDS011;16405;53.964;13.448;2022-10-31T03:58:35;0.00;;;0.00;;
29432;SDS011;16405;53.964;13.448;2022-10-31T04:01:18;0.00;;;0.00;;
29432;SDS011;16405;53.964;13.448;2022-10-31T04:03:53;0.00;;;0.00;;
29432;SDS011;16405;53.964;13.448;2022-10-31T04:06:23;0.00;;;0.00;;
29432;SDS011;16405;53.964;13.448;2022-10-31T04:08:57;0.00;;;0.00;;
29432;SDS011;16405;53.964;13.448;2022-10-31T04:11:29;0.00;;;0.00;;
29432;SDS011;16405;53.964;13.448;2022-10-31T04:14:02;0.00;;;0.00;;
29432;SDS011;16405;53.964;13.448;2022-10-31T04:16:32;0.00;;;0.00;;
29432;SDS011;16405;53.964;13.448;2022-10-31T04:19:04;0.00;;;0.00;;
29432;SDS011;16405;53.964;13.448;2022-10-31T04:21:30;0.00;;;0.00;;
29432;SDS011;16405;53.964;13.448;2022-10-31T04:23:56;0.00;;;0.00;;
29432;SDS011;16405;53.964;13.448;2022-10-31T04:26:22;0.00;;;0.00;;
29432;SDS011;16405;53.964;13.448;2022-10-31T04:28:59;0.00;;;0.00;;
29432;SDS011;16405;53.964;13.448;2022-10-31T04:31:26;0.00;;;0.00;;
29432;SDS011;16405;53.964;13.448;2022-10-31T04:33:52;0.00;;;0.00;;
29432;SDS011;16405;53.964;13.448;2022-10-31T04:36:20;0.00;;;0.00;;
29432;SDS011;16405;53.964;13.448;2022-10-31T04:38:49;0.00;;;0.00;;
29432;SDS011;16405;53.964;13.448;2022-10-31T04:41:14;0.00;;;0.00;;
29432;SDS011;16405;53.964;13.448;2022-10-31T04:43:45;0.00;;;0.00;;
29432;SDS011;16405;53.964;13.448;2022-10-31T04:46:16;0.00;;;0.00;;
29432;SDS011;16405;53.964;13.448;2022-10-31T04:48:42;0.00;;;0.00;;
29432;SDS011;16405;53.964;13.448;2022-10-31T04:51:18;0.00;;;0.00;;
29432;SDS011;16405;53.964;13.448;2022-10-31T04:53:46;0.00;;;0.00;;
29432;SDS011;16405;53.964;13.448;2022-10-31T04:56:12;0.00;;;0.00;;
29432;SDS011;16405;53.964;13.448;2022-10-31T04:58:47;0.00;;;0.00;;
29432;SDS011;16405;53.964;13.448;2022-10-31T05:01:13;0.00;;;0.00;;
29432;SDS011;16405;53.964;13.448;2022-10-31T05:03:38;0.00;;;0.00;;
29432;SDS011;16405;53.964;13.448;2022-10-31T05:06:05;0.00;;;0.00;;
29432;SDS011;16405;53.964;13.448;2022-10-31T05:08:31;0.00;;;0.00;;
29432;SDS011;16405;53.964;13.448;2022-10-31T05:11:06;0.00;;;0.00;;
29432;SDS011;16405;53.964;13.448;2022-10-31T05:13:32;0.00;;;0.00;;
29432;SDS011;16405;53.964;13.448;2022-10-31T05:15:58;0.00;;;0.00;;
29432;SDS011;16405;53.964;13.448;2022-10-31T05:18:24;0.00;;;0.00;;
29432;SDS011;16405;53.964;13.448;2022-10-31T05:21:10;0.00;;;0.00;;
29432;SDS011;16405;53.964;13.448;2022-10-31T05:23:35;0.00;;;0.00;;
29432;SDS011;16405;53.964;13.448;2022-10-31T05:26:04;0.00;;;0.00;;
29432;SDS011;16405;53.964;13.448;2022-10-31T05:28:29;0.00;;;0.00;;
29432;SDS011;16405;53.964;13.448;2022-10-31T05:30:55;0.00;;;0.00;;
29432;SDS011;16405;53.964;13.448;2022-10-31T05:33:21;0.00;;;0.00;;
29432;SDS011;16405;53.964;13.448;2022-10-31T05:35:52;0.00;;;0.00;;
29432;SDS011;16405;53.964;13.448;2022-10-31T05:38:18;0.00;;;0.00;;
29432;SDS011;16405;53.964;13.448;2022-10-31T05:40:46;0.00;;;0.00;;
29432;SDS011;16405;53.964;13.448;2022-10-31T05:43:20;0.00;;;0.00;;
29432;SDS011;16405;53.964;13.448;2022-10-31T05:45:46;0.00;;;0.00;;
29432;SDS011;16405;53.964;13.448;2022-10-31T05:48:12;0.00;;;0.00;;
29432;SDS011;16405;53.964;13.448;2022-10-31T05:50:38;0.00;;;0.00;;
29432;SDS011;16405;53.964;13.448;2022-10-31T05:53:04;0.00;;;0.00;;
29432;SDS011;16405;53.964;13.448;2022-10-31T05:55:40;0.00;;;0.00;;
29432;SDS011;16405;53.964;13.448;2022-10-31T05:58:08;0.00;;;0.00;;
29432;SDS011;16405;53.964;13.448;2022-10-31T06:00:39;0.00;;;0.00;;
29432;SDS011;16405;53.964;13.448;2022-10-31T06:03:06;0.00;;;0.00;;
29432;SDS011;16405;53.964;13.448;2022-10-31T06:05:33;0.00;;;0.00;;
29432;SDS011;16405;53.964;13.448;2022-10-31T06:07:59;0.00;;;0.00;;
29432;SDS011;16405;53.964;13.448;2022-10-31T06:10:34;0.00;;;0.00;;
29432;SDS011;16405;53.964;13.448;2022-10-31T06:13:03;0.00;;;0.00;;
29432;SDS011;16405;53.964;13.448;2022-10-31T06:15:41;0.00;;;0.00;;
29432;SDS011;16405;53.964;13.448;2022-10-31T06:18:07;0.00;;;0.00;;
29432;SDS011;16405;53.964;13.448;2022-10-31T06:20:34;0.00;;;0.00;;
29432;SDS011;16405;53.964;13.448;2022-10-31T06:23:03;0.00;;;0.00;;
29432;SDS011;16405;53.964;13.448;2022-10-31T06:28:14;0.00;;;0.00;;
29432;SDS011;16405;53.964;13.448;2022-10-31T06:30:40;0.00;;;0.00;;
29432;SDS011;16405;53.964;13.448;2022-10-31T06:33:09;0.00;;;0.00;;
29432;SDS011;16405;53.964;13.448;2022-10-31T06:35:37;0.00;;;0.00;;
29432;SDS011;16405;53.964;13.448;2022-10-31T06:38:03;0.00;;;0.00;;
29432;SDS011;16405;53.964;13.448;2022-10-31T06:40:29;0.00;;;0.00;;
29432;SDS011;16405;53.964;13.448;2022-10-31T06:45:50;0.00;;;0.00;;
29432;SDS011;16405;53.964;13.448;2022-10-31T06:48:22;0.00;;;0.00;;
29432;SDS011;16405;53.964;13.448;2022-10-31T06:50:49;0.00;;;0.00;;
29432;SDS011;16405;53.964;13.448;2022-10-31T06:53:17;0.00;;;0.00;;
29432;SDS011;16405;53.964;13.448;2022-10-31T06:55:43;0.00;;;0.00;;
29432;SDS011;16405;53.964;13.448;2022-10-31T06:58:16;0.00;;;0.00;;
29432;SDS011;16405;53.964;13.448;2022-10-31T07:00:42;0.00;;;0.00;;
29432;SDS011;16405;53.964;13.448;2022-10-31T07:03:10;0.00;;;0.00;;
29432;SDS011;16405;53.964;13.448;2022-10-31T07:08:29;0.00;;;0.00;;
29432;SDS011;16405;53.964;13.448;2022-10-31T07:10:55;0.00;;;0.00;;
29432;SDS011;16405;53.964;13.448;2022-10-31T07:13:32;0.00;;;0.00;;
29432;SDS011;16405;53.964;13.448;2022-10-31T07:16:02;0.00;;;0.00;;
29432;SDS011;16405;53.964;13.448;2022-10-31T07:18:37;0.00;;;0.00;;
29432;SDS011;16405;53.964;13.448;2022-10-31T07:21:03;0.00;;;0.00;;
29432;SDS011;16405;53.964;13.448;2022-10-31T07:23:38;0.00;;;0.00;;
29432;SDS011;16405;53.964;13.448;2022-10-31T07:26:04;0.00;;;0.00;;
29432;SDS011;16405;53.964;13.448;2022-10-31T07:31:04;0.00;;;0.00;;
29432;SDS011;16405;53.964;13.448;2022-10-31T07:33:33;0.00;;;0.00;;
29432;SDS011;16405;53.964;13.448;2022-10-31T07:35:59;0.00;;;0.00;;
29432;SDS011;16405;53.964;13.448;2022-10-31T07:38:34;0.00;;;0.00;;
29432;SDS011;16405;53.964;13.448;2022-10-31T07:41:00;0.00;;;0.00;;
29432;SDS011;16405;53.964;13.448;2022-10-31T07:43:26;0.00;;;0.00;;
29432;SDS011;16405;53.964;13.448;2022-10-31T07:48:46;0.00;;;0.00;;
29432;SDS011;16405;53.964;13.448;2022-10-31T07:51:21;0.00;;;0.00;;
29432;SDS011;16405;53.964;13.448;2022-10-31T07:54:00;591.55;;;90.05;;
29432;SDS011;16405;53.964;13.448;2022-10-31T07:56:26;1999.90;;;999.90;;
29432;SDS011;16405;53.964;13.448;2022-10-31T07:58:52;1999.90;;;999.90;;
29432;SDS011;16405;53.964;13.448;2022-10-31T08:01:29;1999.90;;;999.90;;
29432;SDS011;16405;53.964;13.448;2022-10-31T08:03:57;1999.90;;;999.90;;
29432;SDS011;16405;53.964;13.448;2022-10-31T08:06:23;1999.90;;;999.90;;
29432;SDS011;16405;53.964;13.448;2022-10-31T08:09:10;1999.90;;;999.90;;
29432;SDS011;16405;53.964;13.448;2022-10-31T08:11:39;1999.90;;;999.90;;
29432;SDS011;16405;53.964;13.448;2022-10-31T08:14:05;1999.90;;;999.90;;
29432;SDS011;16405;53.964;13.448;2022-10-31T08:16:31;1999.90;;;999.90;;
29432;SDS011;16405;53.964;13.448;2022-10-31T08:19:02;1999.90;;;999.90;;
29432;SDS011;16405;53.964;13.448;2022-10-31T08:21:29;1999.90;;;999.90;;
29432;SDS011;16405;53.964;13.448;2022-10-31T08:23:58;1999.90;;;999.90;;
29432;SDS011;16405;53.964;13.448;2022-10-31T08:26:31;1999.90;;;999.90;;
29432;SDS011;16405;53.964;13.448;2022-10-31T08:28:57;144.52;;;40.13;;
29432;SDS011;16405;53.964;13.448;2022-10-31T08:31:23;95.15;;;30.08;;
29432;SDS011;16405;53.964;13.448;2022-10-31T08:33:59;467.67;;;70.05;;
29432;SDS011;16405;53.964;13.448;2022-10-31T08:36:26;332.08;;;59.15;;
29432;SDS011;16405;53.964;13.448;2022-10-31T08:39:03;336.52;;;71.72;;
29432;SDS011;16405;53.964;13.448;2022-10-31T08:41:48;1999.90;;;999.90;;
29432;SDS011;16405;53.964;13.448;2022-10-31T08:44:13;1999.90;;;999.90;;
29432;SDS011;16405;53.964;13.448;2022-10-31T08:46:49;1999.90;;;999.90;;
29432;SDS011;16405;53.964;13.448;2022-10-31T08:49:15;1999.90;;;999.90;;
29432;SDS011;16405;53.964;13.448;2022-10-31T08:51:46;1999.90;;;999.90;;
29432;SDS011;16405;53.964;13.448;2022-10-31T08:54:15;51.13;;;28.30;;
29432;SDS011;16405;53.964;13.448;2022-10-31T08:56:43;122.38;;;38.42;;
29432;SDS011;16405;53.964;13.448;2022-10-31T08:59:38;53.60;;;22.55;;
29432;SDS011;16405;53.964;13.448;2022-10-31T09:02:07;49.38;;;19.80;;
29432;SDS011;16405;53.964;13.448;2022-10-31T09:07:25;126.13;;;42.90;;
29432;SDS011;16405;53.964;13.448;2022-10-31T09:09:51;92.93;;;24.85;;
29432;SDS011;16405;53.964;13.448;2022-10-31T09:12:46;448.85;;;137.50;;
29432;SDS011;16405;53.964;13.448;2022-10-31T09:15:20;1512.97;;;761.60;;
29432;SDS011;16405;53.964;13.448;2022-10-31T09:17:49;0.00;;;0.00;;
29432;SDS011;16405;53.964;13.448;2022-10-31T09:20:15;96.18;;;86.82;;
29432;SDS011;16405;53.964;13.448;2022-10-31T09:22:54;1999.90;;;999.90;;
29432;SDS011;16405;53.964;13.448;2022-10-31T09:25:31;0.08;;;0.08;;
29432;SDS011;16405;53.964;13.448;2022-10-31T09:27:59;0.00;;;0.00;;
29432;SDS011;16405;53.964;13.448;2022-10-31T09:30:36;301.58;;;59.28;;
29432;SDS011;16405;53.964;13.448;2022-10-31T09:33:03;311.58;;;65.25;;
29432;SDS011;16405;53.964;13.448;2022-10-31T09:35:40;333.88;;;62.20;;
29432;SDS011;16405;53.964;13.448;2022-10-31T09:38:14;342.40;;;63.38;;
29432;SDS011;16405;53.964;13.448;2022-10-31T09:40:49;209.90;;;50.78;;
29432;SDS011;16405;53.964;13.448;2022-10-31T09:44:08;391.63;;;62.25;;
29432;SDS011;16405;53.964;13.448;2022-10-31T09:50:15;273.45;;;56.45;;
29432;SDS011;16405;53.964;13.448;2022-10-31T09:52:51;301.40;;;60.55;;
29432;SDS011;16405;53.964;13.448;2022-10-31T09:55:53;298.50;;;59.65;;
29432;SDS011;16405;53.964;13.448;2022-10-31T09:58:23;284.58;;;56.85;;
29432;SDS011;16405;53.964;13.448;2022-10-31T10:01:00;320.40;;;61.20;;
29432;SDS011;16405;53.964;13.448;2022-10-31T10:04:00;311.98;;;60.78;;
29432;SDS011;16405;53.964;13.448;2022-10-31T10:07:09;252.85;;;52.97;;
29432;SDS011;16405;53.964;13.448;2022-10-31T10:10:17;204.23;;;47.92;;
29432;SDS011;16405;53.964;13.448;2022-10-31T10:40:17;365.90;;;50.97;;
29432;SDS011;16405;53.964;13.448;2022-10-31T10:49:44;327.95;;;52.42;;
29432;SDS011;16405;53.964;13.448;2022-10-31T11:03:11;213.32;;;48.78;;
29432;SDS011;16405;53.964;13.448;2022-10-31T11:06:15;219.25;;;48.92;;
29432;SDS011;16405;53.964;13.448;2022-10-31T11:08:47;219.00;;;50.90;;
29432;SDS011;16405;53.964;13.448;2022-10-31T11:11:25;224.23;;;52.42;;
29432;SDS011;16405;53.964;13.448;2022-10-31T11:15:17;255.23;;;56.67;;
29432;SDS011;16405;53.964;13.448;2022-10-31T11:17:19;220.95;;;56.75;;
29432;SDS011;16405;53.964;13.448;2022-10-31T11:20:01;248.23;;;57.58;;
29432;SDS011;16405;53.964;13.448;2022-10-31T11:22:49;223.80;;;56.42;;
29432;SDS011;16405;53.964;13.448;2022-10-31T11:25:53;213.18;;;55.22;;
29432;SDS011;16405;53.964;13.448;2022-10-31T11:28:38;250.32;;;61.42;;
29432;SDS011;16405;53.964;13.448;2022-10-31T11:31:06;259.15;;;58.58;;
29432;SDS011;16405;53.964;13.448;2022-10-31T11:36:24;239.48;;;59.00;;
29432;SDS011;16405;53.964;13.448;2022-10-31T11:39:13;298.08;;;61.38;;
29432;SDS011;16405;53.964;13.448;2022-10-31T11:41:50;236.70;;;59.42;;
29432;SDS011;16405;53.964;13.448;2022-10-31T11:44:27;301.35;;;63.67;;
29432;SDS011;16405;53.964;13.448;2022-10-31T11:49:50;277.48;;;64.20;;
29432;SDS011;16405;53.964;13.448;2022-10-31T11:52:20;320.67;;;69.15;;
29432;SDS011;16405;53.964;13.448;2022-10-31T11:57:23;347.05;;;70.00;;
29432;SDS011;16405;53.964;13.448;2022-10-31T11:59:55;399.73;;;73.28;;
29432;SDS011;16405;53.964;13.448;2022-10-31T12:02:33;250.10;;;64.05;;
29432;SDS011;16405;53.964;13.448;2022-10-31T12:07:57;346.17;;;71.82;;
29432;SDS011;16405;53.964;13.448;2022-10-31T12:10:24;389.90;;;75.45;;
29432;SDS011;16405;53.964;13.448;2022-10-31T12:13:26;287.17;;;66.45;;
29432;SDS011;16405;53.964;13.448;2022-10-31T12:15:59;307.02;;;68.50;;
29432;SDS011;16405;53.964;13.448;2022-10-31T12:19:04;330.33;;;68.93;;
29432;SDS011;16405;53.964;13.448;2022-10-31T12:36:31;225.88;;;63.33;;
29432;SDS011;16405;53.964;13.448;2022-10-31T12:39:53;213.77;;;58.92;;
29432;SDS011;16405;53.964;13.448;2022-10-31T12:45:51;248.60;;;65.90;;
29432;SDS011;16405;53.964;13.448;2022-10-31T13:00:20;198.43;;;57.42;;
29432;SDS011;16405;53.964;13.448;2022-10-31T13:05:46;251.13;;;63.95;;
29432;SDS011;16405;53.964;13.448;2022-10-31T13:08:44;196.40;;;54.45;;
29432;SDS011;16405;53.964;13.448;2022-10-31T13:11:25;256.60;;;64.15;;
29432;SDS011;16405;53.964;13.448;2022-10-31T13:14:07;328.48;;;69.95;;
29432;SDS011;16405;53.964;13.448;2022-10-31T13:16:57;183.68;;;54.80;;
29432;SDS011;16405;53.964;13.448;2022-10-31T13:19:43;194.98;;;51.88;;
29432;SDS011;16405;53.964;13.448;2022-10-31T13:22:33;244.77;;;59.53;;
29432;SDS011;16405;53.964;13.448;2022-10-31T13:28:00;201.90;;;56.22;;
29432;SDS011;16405;53.964;13.448;2022-10-31T13:30:55;176.93;;;49.03;;
29432;SDS011;16405;53.964;13.448;2022-10-31T13:33:42;184.93;;;50.67;;
29432;SDS011;16405;53.964;13.448;2022-10-31T13:36:48;193.52;;;49.47;;
29432;SDS011;16405;53.964;13.448;2022-10-31T13:39:50;161.77;;;46.63;;
29432;SDS011;16405;53.964;13.448;2022-10-31T13:45:50;187.88;;;50.08;;
29432;SDS011;16405;53.964;13.448;2022-10-31T13:54:06;180.30;;;51.23;;
29432;SDS011;16405;53.964;13.448;2022-10-31T13:57:51;180.37;;;49.27;;
29432;SDS011;16405;53.964;13.448;2022-10-31T14:14:01;97.80;;;36.97;;
29432;SDS011;16405;53.964;13.448;2022-10-31T14:17:21;31.02;;;15.40;;
29432;SDS011;16405;53.964;13.448;2022-10-31T15:34:40;408.63;;;67.35;;
29432;SDS011;16405;53.964;13.448;2022-10-31T15:45:31;455.83;;;72.17;;
29432;SDS011;16405;53.964;13.448;2022-10-31T15:58:01;293.30;;;66.20;;
29432;SDS011;16405;53.964;13.448;2022-10-31T17:12:42;855.60;;;89.68;;
29432;SDS011;16405;53.964;13.448;2022-10-31T17:19:10;1745.55;;;113.93;;
29432;SDS011;16405;53.964;13.448;2022-10-31T17:25:01;642.43;;;80.60;;
29432;SDS011;16405;53.964;13.448;2022-10-31T17:28:00;744.72;;;82.07;;
29432;SDS011;16405;53.964;13.448;2022-10-31T17:51:11;567.58;;;77.68;;
29432;SDS011;16405;53.964;13.448;2022-10-31T17:53:50;745.42;;;86.85;;
29432;SDS011;16405;53.964;13.448;2022-10-31T18:13:30;856.38;;;91.20;;
29432;SDS011;16405;53.964;13.448;2022-10-31T18:19:42;620.08;;;82.00;;
29432;SDS011;16405;53.964;13.448;2022-10-31T18:26:01;397.17;;;70.55;;
29432;SDS011;16405;53.964;13.448;2022-10-31T18:28:40;497.98;;;76.97;;
29432;SDS011;16405;53.964;13.448;2022-10-31T18:31:22;436.88;;;77.43;;
29432;SDS011;16405;53.964;13.448;2022-10-31T18:41:01;312.42;;;63.50;;
29432;SDS011;16405;53.964;13.448;2022-10-31T18:54:01;250.40;;;53.33;;
29432;SDS011;16405;53.964;13.448;2022-10-31T18:59:59;213.60;;;51.72;;
29432;SDS011;16405;53.964;13.448;2022-10-31T19:06:38;241.65;;;54.97;;
29432;SDS011;16405;53.964;13.448;2022-10-31T19:09:32;233.30;;;55.70;;
29432;SDS011;16405;53.964;13.448;2022-10-31T19:17:02;214.50;;;52.53;;
29432;SDS011;16405;53.964;13.448;2022-10-31T19:35:25;221.35;;;45.58;;
29432;SDS011;16405;53.964;13.448;2022-10-31T19:46:20;209.23;;;42.30;;
29432;SDS011;16405;53.964;13.448;2022-10-31T19:58:02;260.60;;;44.33;;
29432;SDS011;16405;53.964;13.448;2022-10-31T20:04:30;244.73;;;43.50;;
29432;SDS011;16405;53.964;13.448;2022-10-31T21:18:22;117.68;;;30.42;;
29432;SDS011;16405;53.964;13.448;2022-10-31T21:21:33;130.85;;;30.83;;
29432;SDS011;16405;53.964;13.448;2022-10-31T21:27:40;89.55;;;26.13;;
29432;SDS011;16405;53.964;13.448;2022-10-31T21:34:21;94.50;;;26.25;;
29432;SDS011;16405;53.964;13.448;2022-10-31T21:37:02;86.97;;;24.00;;
29432;SDS011;16405;53.964;13.448;2022-10-31T21:44:31;110.70;;;32.03;;
29432;SDS011;16405;53.964;13.448;2022-10-31T21:47:12;108.38;;;28.00;;
29432;SDS011;16405;53.964;13.448;2022-10-31T22:01:35;107.05;;;27.20;;
29432;SDS011;16405;53.964;13.448;2022-10-31T22:04:40;114.93;;;26.67;;
29432;SDS011;16405;53.964;13.448;2022-10-31T22:07:40;98.78;;;23.17;;
29432;SDS011;16405;53.964;13.448;2022-10-31T22:14:21;81.93;;;21.33;;
29432;SDS011;16405;53.964;13.448;2022-10-31T22:30:22;62.63;;;16.35;;
29432;SDS011;16405;53.964;13.448;2022-10-31T22:36:11;57.28;;;15.85;;
29432;SDS011;16405;53.964;13.448;2022-10-31T22:39:22;42.65;;;13.07;;
29432;SDS011;16405;53.964;13.448;2022-10-31T22:46:24;58.10;;;17.17;;
29432;SDS011;16405;53.964;13.448;2022-10-31T23:07:40;89.95;;;20.25;;
29432;SDS011;16405;53.964;13.448;2022-10-31T23:10:22;109.70;;;22.58;;
29432;SDS011;16405;53.964;13.448;2022-10-31T23:24:11;130.20;;;25.70;;
29432;SDS011;16405;53.964;13.448;2022-10-31T23:26:53;129.13;;;24.67;;
29432;SDS011;16405;53.964;13.448;2022-10-31T23:36:30;222.80;;;29.65;;
29432;SDS011;16405;53.964;13.448;2022-10-31T23:39:22;292.63;;;31.58;;
29432;SDS011;16405;53.964;13.448;2022-10-31T23:53:02;238.75;;;24.77;;
29432;SDS011;16405;53.964;13.448;2022-10-31T23:56:12;235.13;;;24.00;;
